Time;durP1;ratioP1;P1;durP2;ratioP2;P2;SDS_P1;SDS_P2;PMS_P1;PMS_P2;Temp;Humidity;BMP_temperature;BMP_pressure;BME280_temperature;BME280_humidity;BME280_pressure;Samples;Min_cycle;Max_cycle;Signal;HPM_P1;HPM_P2
2020/12/26 00:00:10;;;;;;;10.18;6.47;;;;;;;-0.87;100.00;101373.09;5075072;28;20409;-66
2020/12/26 00:02:54;;;;;;;12.07;7.25;;;;;;;-0.85;100.00;101379.13;5075086;28;20462;-66
2020/12/26 00:05:39;;;;;;;16.75;7.32;;;;;;;-0.80;100.00;101377.25;5076278;28;20051;-66
2020/12/26 00:08:23;;;;;;;20.15;10.85;;;;;;;-0.77;100.00;101381.50;5075166;28;20101;-66
2020/12/26 00:11:08;;;;;;;14.15;7.07;;;;;;;-0.75;100.00;101385.78;5075402;28;20063;-67
2020/12/26 00:13:52;;;;;;;10.82;6.22;;;;;;;-0.76;100.00;101389.31;5075079;28;20538;-66
2020/12/26 00:16:36;;;;;;;11.65;5.80;;;;;;;-0.77;100.00;101389.34;5074826;28;20103;-65
2020/12/26 00:19:20;;;;;;;;;;;;;;;-0.78;100.00;101395.50;5075064;28;20055;-66
2020/12/26 00:22:04;;;;;;;12.53;6.00;;;;;;;-0.78;100.00;101388.50;5060853;28;19919;-66
2020/12/26 00:24:48;;;;;;;9.68;5.10;;;;;;;-0.75;100.00;101400.66;5074834;28;20315;-65
2020/12/26 00:27:31;;;;;;;21.45;11.95;;;;;;;-0.62;100.00;101394.13;5074889;28;20070;-65
2020/12/26 00:30:15;;;;;;;;;;;;;;;-0.57;100.00;101400.94;5075264;28;20097;-65
2020/12/26 00:33:00;;;;;;;14.18;7.13;;;;;;;-0.48;100.00;101410.28;5075422;28;20060;-65
2020/12/26 00:35:44;;;;;;;27.65;13.85;;;;;;;-0.30;100.00;101404.47;5075747;28;20052;-66
2020/12/26 00:38:28;;;;;;;17.33;8.27;;;;;;;-0.23;100.00;101400.75;5074323;28;20055;-66
2020/12/26 00:41:13;;;;;;;12.52;7.10;;;;;;;-0.26;100.00;101395.56;5075339;28;20091;-66
2020/12/26 00:43:57;;;;;;;14.63;9.05;;;;;;;-0.26;100.00;101404.31;5074592;28;20074;-66
2020/12/26 00:46:40;;;;;;;;;;;;;;;-0.25;100.00;101413.03;5060487;28;20079;-66
2020/12/26 00:49:24;;;;;;;13.88;7.75;;;;;;;-0.27;100.00;101399.09;5074151;28;20451;-64
2020/12/26 00:52:08;;;;;;;11.50;7.10;;;;;;;-0.26;100.00;101408.69;5074380;28;20072;-66
2020/12/26 00:54:52;;;;;;;12.85;6.82;;;;;;;-0.25;100.00;101402.56;5075380;28;20047;-66
2020/12/26 00:57:36;;;;;;;13.35;7.50;;;;;;;-0.21;100.00;101414.66;5075231;28;20551;-65
2020/12/26 01:00:20;;;;;;;;;;;;;;;-0.18;100.00;101414.53;5075598;28;20074;-66
2020/12/26 01:03:04;;;;;;;16.20;8.63;;;;;;;-0.10;100.00;101408.16;5075258;28;20012;-66
2020/12/26 01:05:49;;;;;;;12.40;6.25;;;;;;;0.00;100.00;101420.06;5059312;28;20044;-66
2020/12/26 01:08:33;;;;;;;14.73;7.05;;;;;;;-0.01;100.00;101429.69;5073926;28;20094;-66
2020/12/26 01:11:17;;;;;;;13.70;7.00;;;;;;;0.05;100.00;101434.72;5074018;28;20051;-65
2020/12/26 01:14:00;;;;;;;;;;;;;;;0.06;100.00;101433.81;5075145;28;20043;-66
2020/12/26 01:16:51;;;;;;;11.15;6.82;;;;;;;0.09;100.00;101431.09;5074724;28;19919;-66
2020/12/26 01:19:35;;;;;;;13.25;6.88;;;;;;;0.12;100.00;101430.97;5073488;28;20047;-66
2020/12/26 01:22:19;;;;;;;;;;;;;;;0.16;100.00;101436.97;5074966;28;20131;-65
2020/12/26 01:25:07;;;;;;;11.75;6.28;;;;;;;0.19;100.00;101437.75;5074851;28;19918;-66
2020/12/26 01:27:51;;;;;;;13.98;6.28;;;;;;;0.22;100.00;101440.25;5073372;28;20507;-66
2020/12/26 01:30:35;;;;;;;10.75;6.32;;;;;;;0.26;100.00;101439.25;5074401;28;20047;-66
2020/12/26 01:33:19;;;;;;;10.43;6.30;;;;;;;0.31;100.00;101439.09;5059163;28;20051;-66
2020/12/26 01:36:03;;;;;;;12.50;6.60;;;;;;;0.35;100.00;101433.66;5074568;28;20465;-66
2020/12/26 01:38:47;;;;;;;12.60;6.68;;;;;;;0.35;100.00;101435.44;5074582;28;20132;-64
2020/12/26 01:41:31;;;;;;;11.38;6.75;;;;;;;0.30;100.00;101440.84;5059259;28;20056;-66
2020/12/26 01:44:16;;;;;;;9.82;6.20;;;;;;;0.28;100.00;101437.44;5073392;28;20051;-66
2020/12/26 01:47:00;;;;;;;9.48;5.43;;;;;;;0.27;100.00;101451.47;5074373;28;20097;-66
2020/12/26 01:49:44;;;;;;;13.43;6.57;;;;;;;0.27;100.00;101455.81;5073139;28;20169;-66
2020/12/26 01:52:28;;;;;;;10.68;5.78;;;;;;;0.26;100.00;101460.22;5073131;28;20413;-66
2020/12/26 01:55:13;;;;;;;9.25;5.85;;;;;;;0.27;100.00;101461.94;5073987;28;20114;-66
2020/12/26 01:57:57;;;;;;;12.93;7.55;;;;;;;0.32;100.00;101465.25;5073038;28;20075;-67
2020/12/26 02:00:41;;;;;;;14.30;7.32;;;;;;;0.32;100.00;101470.50;5072761;28;20530;-66
2020/12/26 02:03:25;;;;;;;11.68;6.30;;;;;;;0.35;100.00;101475.63;5072763;28;20134;-66
2020/12/26 02:06:10;;;;;;;13.40;6.28;;;;;;;0.37;100.00;101476.47;5073705;28;20051;-65
2020/12/26 02:08:54;;;;;;;13.05;7.28;;;;;;;0.39;100.00;101476.41;5072611;28;20476;-66
2020/12/26 02:11:39;;;;;;;19.73;8.05;;;;;;;0.45;100.00;101477.03;5072834;28;20043;-65
2020/12/26 02:14:23;;;;;;;20.13;8.88;;;;;;;0.54;100.00;101471.47;5072548;28;20035;-66
2020/12/26 02:17:07;;;;;;;11.80;6.88;;;;;;;0.54;100.00;101474.09;5073536;28;20074;-66
2020/12/26 02:19:51;;;;;;;;;;;;;;;0.54;100.00;101463.59;5073770;28;20043;-66
2020/12/26 02:22:35;;;;;;;12.48;6.82;;;;;;;0.56;100.00;101474.94;5072731;28;19958;-66
2020/12/26 02:25:19;;;;;;;10.63;6.47;;;;;;;0.56;100.00;101474.94;5073401;28;20102;-66
2020/12/26 02:28:03;;;;;;;14.63;6.82;;;;;;;0.55;100.00;101475.81;5072594;28;20105;-66
2020/12/26 02:30:48;;;;;;;12.02;6.65;;;;;;;0.55;100.00;101467.94;5073640;28;20043;-66
2020/12/26 02:33:34;;;;;;;12.57;7.20;;;;;;;0.54;100.00;101468.84;5073556;28;20504;-66
2020/12/26 02:36:19;;;;;;;14.32;6.88;;;;;;;0.52;100.00;101468.06;5072271;28;20044;-66
2020/12/26 02:39:04;;;;;;;17.70;7.70;;;;;;;0.49;100.00;101473.41;5072239;28;20580;-65
2020/12/26 02:41:49;;;;;;;9.88;6.20;;;;;;;0.48;100.00;101470.84;5072500;28;20043;-65
2020/12/26 02:44:33;;;;;;;16.73;7.85;;;;;;;0.48;100.00;101471.72;5072414;28;20048;-65
2020/12/26 02:47:17;;;;;;;10.20;6.90;;;;;;;0.52;100.00;101483.81;5073196;28;20059;-66
2020/12/26 02:50:01;;;;;;;11.18;6.70;;;;;;;0.53;100.00;101480.25;5072016;28;20047;-66
2020/12/26 02:52:45;;;;;;;11.82;6.68;;;;;;;0.51;100.00;101484.72;5072342;28;20044;-66
2020/12/26 02:55:29;;;;;;;;;;;;;;;0.53;100.00;101490.75;5074080;28;20048;-64
2020/12/26 02:58:14;;;;;;;8.93;5.55;;;;;;;0.54;100.00;101491.63;5072028;28;19962;-64
2020/12/26 03:00:58;;;;;;;12.38;6.63;;;;;;;0.55;100.00;101496.81;5072036;28;20094;-66
2020/12/26 03:03:42;;;;;;;16.65;8.02;;;;;;;0.54;100.00;101497.72;5073085;28;20527;-65
2020/12/26 03:06:26;;;;;;;19.25;7.68;;;;;;;0.56;100.00;101501.19;5072278;28;20047;-65
2020/12/26 03:09:10;;;;;;;12.52;7.38;;;;;;;0.61;100.00;101499.22;5072928;28;20168;-66
2020/12/26 03:11:54;;;;;;;13.43;6.88;;;;;;;0.62;100.00;101497.47;5073436;28;20071;-66
2020/12/26 03:14:37;;;;;;;22.45;10.70;;;;;;;0.61;100.00;101503.59;5073193;28;20059;-66
2020/12/26 03:17:21;;;;;;;17.75;7.35;;;;;;;0.60;100.00;101492.28;5072887;28;20458;-66
2020/12/26 03:20:06;;;;;;;10.00;6.55;;;;;;;0.56;100.00;101495.06;5073144;28;20047;-66
2020/12/26 03:22:50;;;;;;;13.70;7.88;;;;;;;0.49;100.00;101497.03;5058001;28;20055;-66
2020/12/26 03:25:33;;;;;;;14.85;8.57;;;;;;;0.49;100.00;101502.28;5071923;28;20078;-66
2020/12/26 03:28:17;;;;;;;15.07;8.60;;;;;;;0.50;100.00;101495.25;5072635;28;20136;-65
2020/12/26 03:31:01;;;;;;;12.15;7.47;;;;;;;0.51;100.00;101491.72;5075665;28;20534;-65
2020/12/26 03:33:45;;;;;;;19.90;8.23;;;;;;;0.53;100.00;101493.38;5075587;28;20047;-65
2020/12/26 03:36:29;;;;;;;16.27;9.10;;;;;;;0.58;100.00;101487.97;5076871;28;20046;-65
2020/12/26 03:39:13;;;;;;;16.67;7.70;;;;;;;0.50;100.00;101498.75;5075732;28;20082;-66
2020/12/26 03:41:58;;;;;;;23.05;9.88;;;;;;;0.49;100.00;101477.78;5075703;28;20507;-66
2020/12/26 03:44:42;;;;;;;18.23;8.95;;;;;;;0.38;100.00;101486.03;5076404;28;20097;-66
2020/12/26 03:47:26;;;;;;;18.15;8.98;;;;;;;0.29;100.00;101481.09;5076535;28;20101;-66
2020/12/26 03:50:10;;;;;;;16.17;8.43;;;;;;;0.18;100.00;101490.22;5061161;28;20110;-66
2020/12/26 03:52:54;;;;;;;18.00;8.93;;;;;;;0.03;100.00;101486.31;5075459;28;20126;-65
2020/12/26 03:55:38;;;;;;;13.63;8.18;;;;;;;-0.08;100.00;101496.28;5076239;28;20052;-65
2020/12/26 03:58:22;;;;;;;17.25;8.55;;;;;;;-0.18;100.00;101498.41;5075121;28;20097;-66
2020/12/26 04:01:06;;;;;;;16.02;8.45;;;;;;;-0.28;100.00;101503.06;5076236;28;20044;-66
2020/12/26 04:03:50;;;;;;;16.58;9.93;;;;;;;-0.34;100.00;101498.00;5076344;28;20047;-65
2020/12/26 04:06:34;;;;;;;;;;;;;;;-0.40;100.00;101498.22;5075421;28;20562;-66
2020/12/26 04:09:18;;;;;;;18.33;9.50;;;;;;;-0.42;100.00;101494.75;5074915;28;20391;-66
2020/12/26 04:12:02;;;;;;;;;;;;;;;-0.42;100.00;101493.91;5075545;28;20089;-66
2020/12/26 04:14:46;;;;;;;18.50;9.93;;;;;;;-0.47;100.00;101503.66;5074890;28;19934;-66
2020/12/26 04:17:34;;;;;;;19.30;9.13;;;;;;;-0.52;100.00;101505.56;5075025;28;20051;-66
2020/12/26 04:20:18;;;;;;;24.88;10.82;;;;;;;-0.56;100.00;101501.31;5076391;28;20058;-62
2020/12/26 04:23:02;;;;;;;21.38;10.40;;;;;;;-0.63;100.00;101515.50;5075984;28;20071;-66
2020/12/26 04:25:46;;;;;;;17.33;9.02;;;;;;;-0.69;100.00;101515.66;5075949;28;20055;-66
2020/12/26 04:28:30;;;;;;;;;;;;;;;-0.76;100.00;101514.16;5074966;28;20059;-65
2020/12/26 04:31:15;;;;;;;17.95;9.63;;;;;;;-0.68;100.00;101517.38;5075854;28;19969;-66
2020/12/26 04:33:59;;;;;;;23.15;10.65;;;;;;;-0.59;100.00;101507.53;5060606;28;20051;-66
2020/12/26 04:36:43;;;;;;;24.60;10.88;;;;;;;-0.59;100.00;101517.13;5075752;28;20043;-63
2020/12/26 04:39:27;;;;;;;;;;;;;;;-0.59;100.00;101510.13;5074744;28;20048;-66
2020/12/26 04:42:11;;;;;;;28.40;14.40;;;;;;;-0.45;100.00;101504.50;5074609;28;20324;-66
2020/12/26 04:44:55;;;;;;;22.33;12.55;;;;;;;-0.49;100.00;101500.22;5075602;28;20098;-66
2020/12/26 04:47:45;;;;;;;31.35;15.30;;;;;;;-0.54;100.00;101503.00;5074535;28;20050;-66
2020/12/26 04:50:32;;;;;;;29.75;13.45;;;;;;;-0.40;100.00;101497.34;5074264;28;20039;-66
2020/12/26 04:53:18;;;;;;;28.27;13.25;;;;;;;-0.37;100.00;101505.09;5075099;28;20079;-65
2020/12/26 04:56:04;;;;;;;27.30;13.55;;;;;;;-0.24;100.00;101496.81;5075144;28;20090;-66
2020/12/26 04:58:49;;;;;;;20.50;12.48;;;;;;;-0.10;100.00;101496.41;5074107;28;20440;-66
2020/12/26 05:01:36;;;;;;;27.02;13.32;;;;;;;-0.04;100.00;101502.31;5075046;28;20526;-66
2020/12/26 05:04:21;;;;;;;26.33;12.65;;;;;;;0.04;100.00;101506.38;5073953;28;20071;-66
2020/12/26 05:07:05;;;;;;;;;;;;;;;0.11;100.00;101502.69;5074318;28;20082;-65
2020/12/26 05:09:49;;;;;;;25.35;11.95;;;;;;;0.16;100.00;101505.16;5073808;28;20008;-66
2020/12/26 05:12:36;;;;;;;28.05;13.55;;;;;;;0.11;100.00;101513.16;5075219;28;20051;-65
2020/12/26 05:15:20;;;;;;;24.55;11.90;;;;;;;0.15;100.00;101504.31;5074994;28;20047;-65
2020/12/26 05:18:04;;;;;;;;;;;;;;;0.08;100.00;101507.16;5074033;28;20047;-66
2020/12/26 05:20:48;;;;;;;25.77;12.05;;;;;;;0.15;100.00;101501.69;5074960;28;19915;-66
2020/12/26 05:23:32;;;;;;;24.60;12.75;;;;;;;0.20;100.00;101502.38;5073881;28;20047;-66
2020/12/26 05:26:16;;;;;;;24.27;12.43;;;;;;;0.25;100.00;101494.38;5074645;28;20424;-66
2020/12/26 05:29:01;;;;;;;22.58;12.52;;;;;;;0.29;100.00;101496.84;5059543;28;20131;-66
2020/12/26 05:31:53;;;;;;;26.40;12.77;;;;;;;0.29;100.00;101499.47;5074381;28;20047;-66
2020/12/26 05:34:38;;;;;;;30.58;13.85;;;;;;;0.36;100.00;101492.25;5073427;28;20520;-65
2020/12/26 05:37:22;;;;;;;21.30;12.23;;;;;;;0.43;100.00;101488.50;5074552;28;20070;-65
2020/12/26 05:40:06;;;;;;;29.65;14.55;;;;;;;0.42;100.00;101492.88;5073387;28;20050;-66
2020/12/26 05:42:50;;;;;;;29.45;14.35;;;;;;;0.45;100.00;101498.03;5074242;28;20047;-66
2020/12/26 05:45:38;;;;;;;;;;;;;;;0.45;100.00;101487.53;5059727;28;20043;-66
2020/12/26 05:48:23;;;;;;;31.08;13.57;;;;;;;0.49;100.00;101489.16;5073183;28;19939;-66
2020/12/26 05:51:07;;;;;;;27.63;14.80;;;;;;;0.53;100.00;101490.75;5072511;28;20098;-66
2020/12/26 05:53:55;;;;;;;30.95;15.50;;;;;;;0.50;100.00;101490.00;5073862;28;20071;-66
2020/12/26 05:56:40;;;;;;;25.63;15.02;;;;;;;0.58;100.00;101490.59;5073165;28;20052;-66
2020/12/26 05:59:25;;;;;;;37.58;14.57;;;;;;;0.59;100.00;101505.44;5072802;28;20123;-65
2020/12/26 06:02:25;;;;;;;29.42;15.50;;;;;;;0.59;100.00;101490.56;5072819;28;20051;-66
2020/12/26 06:05:10;;;;;;;26.45;13.70;;;;;;;0.62;100.00;101493.06;5073024;28;20566;-66
2020/12/26 06:07:54;;;;;;;32.25;15.60;;;;;;;0.60;100.00;101480.91;5073632;28;20466;-66
2020/12/26 06:10:38;;;;;;;;;;;;;;;0.60;100.00;101496.66;5073370;28;20090;-66
2020/12/26 06:13:25;;;;;;;24.67;14.93;;;;;;;0.59;100.00;101503.69;5072588;28;19924;-66
2020/12/26 06:16:22;;;;;;;29.83;15.15;;;;;;;0.59;100.00;101508.94;5073843;28;20056;-65
2020/12/26 06:19:09;;;;;;;26.90;14.57;;;;;;;0.61;100.00;101514.97;5072467;28;20482;-66
2020/12/26 06:21:53;;;;;;;28.73;14.65;;;;;;;0.64;100.00;101517.50;5072496;28;20130;-66
2020/12/26 06:24:39;;;;;;;26.23;14.20;;;;;;;0.63;100.00;101515.78;5073407;28;20479;-64
2020/12/26 06:27:24;;;;;;;29.50;15.13;;;;;;;0.66;100.00;101523.53;5073907;28;20401;-66
2020/12/26 06:30:08;;;;;;;27.02;13.95;;;;;;;0.70;100.00;101522.53;5058938;28;20046;-67
2020/12/26 06:32:52;;;;;;;29.38;15.32;;;;;;;0.69;100.00;101523.47;5072375;28;20055;-67
2020/12/26 06:35:41;;;;;;;29.13;15.10;;;;;;;0.71;100.00;101532.13;5073298;28;20056;-66
2020/12/26 06:38:28;;;;;;;30.00;15.20;;;;;;;0.77;100.00;101529.31;5072396;28;20054;-66
2020/12/26 06:41:17;;;;;;;30.63;14.27;;;;;;;0.82;100.00;101531.78;5072495;28;20135;-66
2020/12/26 06:44:00;;;;;;;28.35;15.10;;;;;;;0.82;100.00;101529.16;5073520;28;20064;-66
2020/12/26 06:46:44;;;;;;;;;;;;;;;0.85;100.00;101524.63;5073909;28;20051;-67
2020/12/26 06:49:28;;;;;;;28.17;14.07;;;;;;;0.88;100.00;101519.28;5072177;28;19919;-67
2020/12/26 06:52:38;;;;;;;27.95;14.10;;;;;;;0.92;100.00;101525.25;5058168;28;20098;-67
2020/12/26 06:55:42;;;;;;;30.48;16.15;;;;;;;0.90;100.00;101530.59;5072318;28;20120;-66
2020/12/26 06:58:25;;;;;;;28.30;14.52;;;;;;;0.92;100.00;101530.50;5057819;28;20038;-67
2020/12/26 07:01:22;;;;;;;25.67;13.85;;;;;;;0.91;100.00;101519.19;5072499;28;20404;-67
2020/12/26 07:04:17;;;;;;;27.63;15.23;;;;;;;0.96;100.00;101522.47;5075126;28;20043;-66
2020/12/26 07:07:01;;;;;;;31.85;14.98;;;;;;;1.01;100.00;101509.19;5076488;28;20090;-62
2020/12/26 07:09:46;;;;;;;31.05;15.10;;;;;;;0.99;100.00;101506.63;5077083;28;20094;-66
2020/12/26 07:12:42;;;;;;;24.08;13.32;;;;;;;0.98;100.00;101504.94;5076365;28;20058;-66
2020/12/26 07:15:32;;;;;;;29.52;15.00;;;;;;;0.99;100.00;101501.38;5077000;28;20055;-67
2020/12/26 07:18:23;;;;;;;30.38;13.52;;;;;;;0.99;100.00;101496.13;5075925;28;20046;-67
2020/12/26 07:21:08;;;;;;;21.83;11.50;;;;;;;0.98;100.00;101497.06;5076220;28;20089;-63
2020/12/26 07:23:52;;;;;;;29.38;15.00;;;;;;;0.97;100.00;101492.72;5076132;28;20047;-66
2020/12/26 07:26:37;;;;;;;26.70;12.13;;;;;;;0.93;100.00;101491.09;5076093;28;20048;-66
2020/12/26 07:29:25;;;;;;;26.17;14.02;;;;;;;0.94;100.00;101486.72;5076944;28;20051;-66
2020/12/26 07:32:09;;;;;;;25.42;13.00;;;;;;;0.91;100.00;101492.03;5075845;28;20043;-67
2020/12/26 07:34:54;;;;;;;24.92;14.00;;;;;;;0.91;100.00;101490.28;5076644;28;20079;-67
2020/12/26 07:37:46;;;;;;;21.80;9.23;;;;;;;0.94;100.00;101497.22;5062016;28;20062;-67
2020/12/26 07:40:33;;;;;;;25.50;13.48;;;;;;;0.93;100.00;101501.59;5075668;28;20086;-67
2020/12/26 07:43:17;;;;;;;25.42;14.40;;;;;;;0.98;100.00;101504.06;5076752;28;20043;-66
2020/12/26 07:46:02;;;;;;;21.00;11.50;;;;;;;1.03;100.00;101505.59;5075399;28;20050;-67
2020/12/26 07:48:55;;;;;;;22.45;13.10;;;;;;;1.03;100.00;101505.59;5075747;28;20131;-64
2020/12/26 07:51:39;;;;;;;24.85;12.43;;;;;;;1.06;100.00;101510.75;5076290;28;20054;-66
2020/12/26 07:54:23;;;;;;;28.98;12.95;;;;;;;1.05;100.00;101506.41;5075366;28;20036;-67
2020/12/26 07:57:07;;;;;;;25.67;13.98;;;;;;;1.07;100.00;101501.94;5075264;28;20050;-67
2020/12/26 07:59:51;;;;;;;24.73;12.93;;;;;;;1.10;100.00;101493.97;5075115;28;20177;-66
2020/12/26 08:02:35;;;;;;;24.40;12.55;;;;;;;1.14;100.00;101490.31;5076147;28;20071;-67
2020/12/26 08:05:23;;;;;;;29.35;14.00;;;;;;;1.18;100.00;101497.19;5076331;28;20059;-67
2020/12/26 08:08:16;;;;;;;24.25;13.43;;;;;;;1.20;100.00;101499.75;5076486;28;20051;-66
2020/12/26 08:11:00;;;;;;;25.00;14.02;;;;;;;1.23;100.00;101502.28;5075971;28;20428;-66
2020/12/26 08:13:58;;;;;;;24.00;13.10;;;;;;;1.32;100.00;101510.66;5075630;28;20132;-66
2020/12/26 08:16:43;;;;;;;21.98;12.13;;;;;;;1.39;100.00;101511.28;5076358;28;20098;-67
2020/12/26 08:19:27;;;;;;;20.33;12.63;;;;;;;1.47;100.00;101512.69;5075668;28;20051;-66
2020/12/26 08:22:13;;;;;;;21.55;11.82;;;;;;;1.51;100.00;101522.22;5076064;28;20079;-66
2020/12/26 08:25:08;;;;;;;25.27;12.30;;;;;;;1.55;100.00;101522.97;5060844;28;20121;-66
2020/12/26 08:27:52;;;;;;;25.42;12.40;;;;;;;1.54;100.00;101522.09;5075595;28;20055;-66
2020/12/26 08:30:38;;;;;;;17.95;8.15;;;;;;;1.61;100.00;101527.97;5075628;28;20066;-66
2020/12/26 08:33:29;;;;;;;25.08;12.15;;;;;;;1.68;100.00;101525.03;5074791;28;20051;-67
2020/12/26 08:36:35;;;;;;;23.58;11.70;;;;;;;1.69;100.00;101525.91;5074588;28;20085;-67
2020/12/26 08:39:19;;;;;;;21.75;8.75;;;;;;;1.67;100.00;101535.63;5075612;28;20564;-66
2020/12/26 08:42:04;;;;;;;24.60;11.00;;;;;;;1.64;100.00;101536.59;5075393;28;20550;-66
2020/12/26 08:44:48;;;;;;;22.35;11.88;;;;;;;1.61;100.00;101533.22;5074414;28;20044;-66
2020/12/26 08:47:32;;;;;;;22.20;12.30;;;;;;;1.56;100.00;101536.03;5074371;28;20052;-66
2020/12/26 08:50:16;;;;;;;22.13;11.30;;;;;;;1.58;100.00;101539.44;5074277;28;20086;-67
2020/12/26 08:53:03;;;;;;;24.90;13.20;;;;;;;1.58;100.00;101535.97;5074245;28;20157;-67
2020/12/26 08:55:49;;;;;;;20.20;11.50;;;;;;;1.57;100.00;101544.78;5074177;28;20535;-67
2020/12/26 08:58:33;;;;;;;19.60;12.13;;;;;;;1.59;100.00;101543.81;5075155;28;20058;-67
2020/12/26 09:01:17;;;;;;;22.85;12.68;;;;;;;1.66;100.00;101544.44;5060041;28;20055;-67
2020/12/26 09:04:01;;;;;;;;;;;;;;;1.64;100.00;101557.63;5075785;28;20044;-66
2020/12/26 09:06:45;;;;;;;22.30;12.27;;;;;;;1.76;100.00;101565.03;5074140;28;19961;-66
2020/12/26 09:09:30;;;;;;;22.17;12.82;;;;;;;1.81;100.00;101562.25;5074052;28;20044;-66
2020/12/26 09:12:15;;;;;;;24.48;13.15;;;;;;;2.34;100.00;101571.53;5074741;28;20488;-66
2020/12/26 09:14:59;;;;;;;19.92;11.35;;;;;;;3.19;100.00;101562.63;5073953;28;20047;-67
2020/12/26 09:17:44;;;;;;;16.67;9.23;;;;;;;4.14;92.43;101557.28;5075017;28;20071;-67
2020/12/26 09:20:28;;;;;;;18.50;10.25;;;;;;;4.73;88.82;101555.25;5060046;28;20098;-67
2020/12/26 09:23:12;;;;;;;14.75;9.02;;;;;;;5.49;80.22;101556.50;5074729;28;20128;-67
2020/12/26 09:26:09;;;;;;;18.10;9.60;;;;;;;5.35;80.99;101564.28;5073786;28;20120;-67
2020/12/26 09:28:56;;;;;;;17.25;9.35;;;;;;;5.58;80.43;101561.31;5074354;28;20514;-66
2020/12/26 09:31:39;;;;;;;19.20;10.30;;;;;;;5.94;77.12;101559.34;5074673;28;20052;-66
2020/12/26 09:34:24;;;;;;;16.60;9.82;;;;;;;5.08;80.87;101565.75;5073597;28;20047;-66
2020/12/26 09:37:10;;;;;;;18.58;9.55;;;;;;;4.85;82.67;101564.31;5074553;28;20094;-67
2020/12/26 09:39:54;;;;;;;13.75;7.50;;;;;;;4.69;82.60;101568.69;5074200;28;20476;-67
2020/12/26 09:42:38;;;;;;;18.92;9.60;;;;;;;4.59;84.39;101559.50;5073272;28;20551;-67
2020/12/26 09:45:22;;;;;;;17.60;9.35;;;;;;;4.95;82.93;101563.81;5059309;28;20171;-68
2020/12/26 09:48:06;;;;;;;16.08;10.07;;;;;;;5.09;81.06;101556.88;5073130;28;20063;-67
2020/12/26 09:50:50;;;;;;;17.30;9.65;;;;;;;5.64;78.34;101568.91;5074236;28;20507;-67
2020/12/26 09:53:34;;;;;;;18.52;10.10;;;;;;;5.81;76.82;101568.91;5074174;28;20135;-66
2020/12/26 09:56:19;;;;;;;14.48;7.97;;;;;;;6.47;73.15;101567.78;5073142;28;20128;-65
2020/12/26 09:59:03;;;;;;;14.85;9.15;;;;;;;8.42;68.43;101561.88;5073902;28;20048;-66
2020/12/26 10:01:46;;;;;;;17.88;8.25;;;;;;;9.88;59.72;101557.94;5073936;28;20048;-67
2020/12/26 10:04:30;;;;;;;13.73;8.52;;;;;;;10.02;59.82;101555.19;5073169;28;20052;-67
2020/12/26 10:07:18;;;;;;;13.82;8.35;;;;;;;9.61;59.33;101556.38;5072815;28;20043;-67
2020/12/26 10:10:02;;;;;;;14.75;9.05;;;;;;;8.35;62.25;101562.38;5072536;28;20083;-68
2020/12/26 10:12:46;;;;;;;14.95;8.50;;;;;;;8.52;61.54;101554.13;5072541;28;20043;-69
2020/12/26 10:15:30;;;;;;;13.75;8.48;;;;;;;7.49;65.29;101574.91;5072606;28;20424;-68
2020/12/26 10:18:15;;;;;;;11.95;7.35;;;;;;;5.40;75.24;101583.44;5071080;28;20139;-69
2020/12/26 10:20:59;;;;;;;17.42;9.57;;;;;;;4.94;78.16;101575.31;5095545;22;20060;-72
2020/12/26 10:23:44;;;;;;;17.30;9.85;;;;;;;4.68;81.17;101575.72;5072957;28;20066;-71
2020/12/26 10:26:28;;;;;;;21.83;10.68;;;;;;;4.49;83.35;101587.28;5072611;28;20047;-70
2020/12/26 10:29:12;;;;;;;20.42;10.40;;;;;;;4.46;84.11;101574.25;5072993;28;20059;-72
2020/12/26 10:31:56;;;;;;;19.08;11.27;;;;;;;4.79;83.03;101580.50;5072020;28;20047;-71
2020/12/26 10:34:41;;;;;;;16.70;11.40;;;;;;;4.54;83.42;101570.28;5072002;28;20040;-72
2020/12/26 10:37:25;;;;;;;;;;;;;;;4.10;85.80;101575.97;5073379;28;20098;-70
2020/12/26 10:40:09;;;;;;;19.40;10.38;;;;;;;4.16;86.52;101554.59;5071748;28;19922;-72
2020/12/26 10:42:53;;;;;;;23.75;12.82;;;;;;;3.95;87.38;101555.59;5071765;28;20043;-72
2020/12/26 10:45:37;;;;;;;18.20;10.13;;;;;;;4.14;86.68;101551.16;5072543;28;20050;-72
2020/12/26 10:48:21;;;;;;;21.38;11.25;;;;;;;5.12;82.11;101546.13;5072476;28;20048;-73
2020/12/26 10:51:05;;;;;;;19.48;10.85;;;;;;;5.16;81.13;101547.72;5058222;28;20055;-73
2020/12/26 10:53:49;;;;;;;20.80;11.27;;;;;;;5.64;79.51;101534.50;5073053;28;20059;-72
2020/12/26 10:56:33;;;;;;;18.10;9.82;;;;;;;6.36;73.80;101538.41;5073415;28;20097;-73
2020/12/26 10:59:18;;;;;;;17.67;9.57;;;;;;;5.81;74.66;101538.91;5072495;28;20063;-74
2020/12/26 11:02:02;;;;;;;17.80;9.77;;;;;;;6.25;73.84;101535.53;5073105;28;20140;-73
2020/12/26 11:04:47;;;;;;;17.58;9.95;;;;;;;6.34;74.30;101531.53;5073338;28;20569;-70
2020/12/26 11:07:31;;;;;;;19.70;10.25;;;;;;;6.38;73.17;101523.28;5072024;28;20113;-72
2020/12/26 11:10:15;;;;;;;18.67;9.90;;;;;;;6.91;70.18;101523.69;5073106;28;20134;-73
2020/12/26 11:12:59;;;;;;;15.93;9.77;;;;;;;7.10;69.40;101528.75;5072289;28;20153;-71
2020/12/26 11:15:43;;;;;;;16.40;9.80;;;;;;;6.83;70.91;101517.97;5073306;28;20405;-72
2020/12/26 11:18:28;;;;;;;18.42;9.63;;;;;;;7.82;67.31;101503.84;5073384;28;20516;-72
2020/12/26 11:21:16;;;;;;;18.92;10.05;;;;;;;8.18;64.64;101497.06;5071777;28;20093;-73
2020/12/26 11:24:00;;;;;;;16.88;8.93;;;;;;;9.16;62.84;101493.88;5072029;28;20409;-73
2020/12/26 11:26:44;;;;;;;14.38;8.77;;;;;;;9.56;58.86;101507.94;5071869;28;20424;-74
2020/12/26 11:29:29;;;;;;;18.00;8.95;;;;;;;9.82;57.82;101498.94;5057836;28;20125;-72
2020/12/26 11:32:13;;;;;;;16.10;8.65;;;;;;;9.67;58.31;101492.06;5071634;28;20109;-74
2020/12/26 11:34:57;;;;;;;13.77;8.45;;;;;;;9.13;59.21;101485.25;5072778;28;20090;-74
2020/12/26 11:37:41;;;;;;;14.07;9.30;;;;;;;8.55;61.70;101476.88;5072710;28;20067;-73
2020/12/26 11:40:25;;;;;;;14.82;10.07;;;;;;;8.64;62.23;101478.94;5071733;28;20511;-74
2020/12/26 11:43:09;;;;;;;13.15;8.65;;;;;;;8.38;62.88;101477.13;5071903;28;20051;-74
2020/12/26 11:45:53;;;;;;;14.27;8.57;;;;;;;7.86;63.80;101484.09;5057677;28;20047;-74
2020/12/26 11:48:37;;;;;;;15.82;9.80;;;;;;;7.56;65.60;101475.41;5072722;28;20102;-74
2020/12/26 11:51:21;;;;;;;12.95;8.60;;;;;;;7.73;65.89;101475.22;5075210;28;20579;-74
2020/12/26 11:54:05;;;;;;;13.25;8.75;;;;;;;7.33;66.82;101469.84;5075535;28;20098;-74
2020/12/26 11:56:53;;;;;;;15.18;9.90;;;;;;;7.35;68.77;101460.84;5075218;28;20574;-73
2020/12/26 11:59:37;;;;;;;14.52;8.77;;;;;;;7.79;65.60;101466.84;5076422;28;20052;-73
2020/12/26 12:02:22;;;;;;;16.65;8.88;;;;;;;7.93;63.90;101464.19;5076399;28;20048;-71
2020/12/26 12:05:06;;;;;;;14.18;8.93;;;;;;;7.83;65.89;101458.59;5076122;28;20047;-72
2020/12/26 12:07:50;;;;;;;14.25;8.95;;;;;;;7.42;67.46;101456.88;5076316;28;20126;-74
2020/12/26 12:10:34;;;;;;;18.35;10.27;;;;;;;6.82;68.98;101463.25;5075085;28;20528;-74
2020/12/26 12:13:18;;;;;;;18.15;9.02;;;;;;;6.36;71.16;101469.56;5074947;28;20518;-73
2020/12/26 12:16:02;;;;;;;;;;;;;;;5.77;73.58;101461.47;5076351;28;20133;-74
2020/12/26 12:18:46;;;;;;;14.80;9.57;;;;;;;5.32;78.06;101458.69;5076137;28;19961;-73
2020/12/26 12:21:30;;;;;;;20.75;10.55;;;;;;;5.36;78.73;101447.00;5076103;28;20075;-72
2020/12/26 12:24:14;;;;;;;17.30;10.55;;;;;;;5.05;78.90;101449.59;5075026;28;20047;-73
2020/12/26 12:26:58;;;;;;;19.55;10.50;;;;;;;4.93;81.68;101437.97;5076014;28;20127;-72
2020/12/26 12:29:42;;;;;;;25.80;10.80;;;;;;;4.92;80.94;101441.53;5060495;28;20512;-73
2020/12/26 12:32:26;;;;;;;18.90;11.60;;;;;;;4.73;82.15;101439.00;5060616;28;20108;-72
2020/12/26 12:35:10;;;;;;;;;;;;;;;5.00;82.02;101433.13;5075999;28;20101;-73
2020/12/26 12:37:54;;;;;;;18.05;10.27;;;;;;;4.74;82.12;101443.34;5075152;28;19970;-72
2020/12/26 12:40:38;;;;;;;16.52;8.85;;;;;;;4.79;82.70;101436.03;5074406;28;20076;-72